Time;durP1;ratioP1;P1;durP2;ratioP2;P2;SDS_P1;SDS_P2;PMS_P1;PMS_P2;Temp;Humidity;BMP_temperature;BMP_pressure;BME280_temperature;BME280_humidity;BME280_pressure;Samples;Min_cycle;Max_cycle;Signal;HPM_P1;HPM_P2
2022/12/28 00:01:51;;;;;;;7.27;4.67;;;;;;;;;;4976559;28;20481;-72
2022/12/28 00:04:43;;;;;;;4.33;3.90;;;;;;;;;;4978921;28;20449;-72
2022/12/28 00:07:32;;;;;;;6.97;4.93;;;;;;;;;;4969957;28;20486;-71
2022/12/28 00:10:23;;;;;;;4.60;3.80;;;;;;;;;;4969257;28;20493;-71
2022/12/28 00:13:37;;;;;;;7.07;4.47;;;;;;;;;;4969466;28;20453;-72
2022/12/28 00:16:31;;;;;;;6.13;3.93;;;;;;;;;;4975179;28;20554;-71
2022/12/28 00:19:22;;;;;;;4.47;4.03;;;;;;;;;;4974568;28;20489;-74
2022/12/28 00:22:14;;;;;;;5.57;3.57;;;;;;;;;;4974874;28;20489;-73
2022/12/28 00:25:08;;;;;;;3.97;3.13;;;;;;;;;;4971871;28;20458;-72
2022/12/28 00:27:58;;;;;;;4.77;3.10;;;;;;;;;;4966600;28;21028;-72
2022/12/28 00:30:51;;;;;;;3.30;3.00;;;;;;;;;;4970234;28;20458;-72
2022/12/28 00:33:45;;;;;;;3.47;2.67;;;;;;;;;;4967088;28;22417;-73
2022/12/28 00:36:37;;;;;;;6.33;3.00;;;;;;;;;;4968799;28;20465;-73
2022/12/28 00:39:48;;;;;;;4.07;2.87;;;;;;;;;;4966178;28;20510;-73
2022/12/28 00:42:39;;;;;;;4.43;3.03;;;;;;;;;;4958645;28;20494;-72
2022/12/28 00:45:27;;;;;;;3.13;2.77;;;;;;;;;;4972642;28;20476;-72
2022/12/28 00:48:22;;;;;;;3.30;2.40;;;;;;;;;;4963359;28;20487;-71
2022/12/28 00:51:13;;;;;;;3.70;2.50;;;;;;;;;;4969382;28;20454;-71
2022/12/28 00:54:06;;;;;;;3.43;2.60;;;;;;;;;;4962122;28;20904;-74
2022/12/28 00:56:56;;;;;;;4.50;2.83;;;;;;;;;;4973585;28;20454;-72
2022/12/28 00:59:52;;;;;;;3.50;2.60;;;;;;;;;;4989016;28;20985;-72
2022/12/28 01:02:40;;;;;;;4.83;2.50;;;;;;;;;;4972791;28;20486;-72
2022/12/28 01:05:29;;;;;;;5.80;2.63;;;;;;;;;;4975248;28;20458;-72
2022/12/28 01:08:22;;;;;;;2.97;2.10;;;;;;;;;;4964553;28;20482;-72
2022/12/28 01:11:18;;;;;;;3.33;2.20;;;;;;;;;;4975370;28;20466;-72
2022/12/28 01:14:07;;;;;;;3.30;2.27;;;;;;;;;;4968699;28;20454;-72
2022/12/28 01:16:56;;;;;;;4.13;2.60;;;;;;;;;;4979602;28;20462;-73
2022/12/28 01:19:47;;;;;;;3.20;1.93;;;;;;;;;;4980434;28;21035;-72
2022/12/28 01:22:41;;;;;;;3.67;2.30;;;;;;;;;;4966133;28;20505;-72
2022/12/28 01:25:30;;;;;;;5.00;2.00;;;;;;;;;;4979680;28;20476;-73
2022/12/28 01:28:34;;;;;;;2.63;2.30;;;;;;;;;;4978928;28;20478;-72
2022/12/28 01:31:22;;;;;;;4.13;1.90;;;;;;;;;;4979168;28;20465;-72
2022/12/28 01:34:17;;;;;;;3.23;2.20;;;;;;;;;;4972065;28;20835;-72
2022/12/28 01:37:08;;;;;;;2.90;2.33;;;;;;;;;;4980132;28;20451;-73
2022/12/28 01:40:04;;;;;;;4.10;2.40;;;;;;;;;;4976145;28;20862;-72
2022/12/28 01:42:54;;;;;;;4.70;2.10;;;;;;;;;;4978537;28;20476;-72
2022/12/28 01:45:53;;;;;;;3.33;2.13;;;;;;;;;;4973499;28;20468;-73
2022/12/28 01:48:50;;;;;;;4.50;2.43;;;;;;;;;;4972166;28;20979;-73
2022/12/28 01:51:42;;;;;;;4.77;2.23;;;;;;;;;;4970198;28;20454;-73
2022/12/28 01:54:34;;;;;;;2.20;2.00;;;;;;;;;;4968572;28;20842;-72
2022/12/28 01:57:40;;;;;;;4.13;2.30;;;;;;;;;;4965489;28;20458;-73
2022/12/28 02:00:28;;;;;;;3.10;2.40;;;;;;;;;;4971554;28;20490;-73
2022/12/28 02:03:25;;;;;;;2.93;2.00;;;;;;;;;;4976532;28;20506;-72
2022/12/28 02:06:15;;;;;;;3.57;2.00;;;;;;;;;;4963215;28;20458;-72
2022/12/28 02:09:05;;;;;;;3.50;2.40;;;;;;;;;;4963338;28;20489;-72
2022/12/28 02:11:59;;;;;;;2.17;1.97;;;;;;;;;;4976154;28;20970;-72
2022/12/28 02:14:48;;;;;;;2.60;2.20;;;;;;;;;;4974686;28;20838;-72
2022/12/28 02:17:41;;;;;;;3.43;2.10;;;;;;;;;;4977230;28;20473;-72
2022/12/28 02:20:37;;;;;;;2.97;2.37;;;;;;;;;;4969376;28;20467;-71
2022/12/28 02:23:37;;;;;;;3.40;1.97;;;;;;;;;;4964694;28;20998;-72
2022/12/28 02:26:34;;;;;;;4.30;2.60;;;;;;;;;;4971785;28;20879;-72
2022/12/28 02:29:32;;;;;;;7.50;2.03;;;;;;;;;;4965024;28;20483;-73
2022/12/28 02:32:38;;;;;;;4.37;2.07;;;;;;;;;;4967962;28;20467;-72
2022/12/28 02:35:31;;;;;;;4.50;2.03;;;;;;;;;;4968175;28;20598;-72
2022/12/28 02:38:24;;;;;;;5.50;2.40;;;;;;;;;;4961681;28;20502;-72
2022/12/28 02:41:14;;;;;;;3.20;2.20;;;;;;;;;;4967754;28;20454;-72
2022/12/28 02:44:02;;;;;;;3.47;2.03;;;;;;;;;;4964189;28;20994;-72
2022/12/28 02:50:07;;;;;;;5.20;2.77;;;;;;;;;;4943649;28;20505;-72
2022/12/28 02:53:11;;;;;;;2.43;2.10;;;;;;;;;;4958894;28;20531;-71
2022/12/28 02:56:10;;;;;;;3.77;2.20;;;;;;;;;;4968100;28;20469;-72
2022/12/28 02:59:22;;;;;;;3.17;2.10;;;;;;;;;;4962160;28;20496;-72
2022/12/28 03:02:26;;;;;;;3.23;2.20;;;;;;;;;;4966360;28;21049;-73
2022/12/28 03:08:13;;;;;;;3.90;1.97;;;;;;;;;;4978601;28;22332;-72
2022/12/28 03:08:36;;;;;;;3.93;2.20;;;;;;;;;;4968215;28;20498;-72
2022/12/28 03:11:30;;;;;;;3.43;2.20;;;;;;;;;;4971045;28;21094;-72
2022/12/28 03:14:24;;;;;;;3.23;2.20;;;;;;;;;;4973309;28;20453;-72
2022/12/28 03:33:06;;;;;;;3.00;2.70;;;;;;;;;;4973813;28;20457;-72
2022/12/28 03:36:00;;;;;;;4.90;2.90;;;;;;;;;;4977181;28;20454;-72
2022/12/28 03:39:07;;;;;;;3.77;2.63;;;;;;;;;;4968327;28;20484;-72
2022/12/28 03:45:07;;;;;;;5.00;2.43;;;;;;;;;;4984377;28;20480;-72
2022/12/28 03:48:00;;;;;;;3.10;2.33;;;;;;;;;;4978676;28;20989;-72
2022/12/28 03:50:50;;;;;;;4.17;2.30;;;;;;;;;;4975314;28;20449;-72
2022/12/28 03:53:47;;;;;;;3.80;2.40;;;;;;;;;;4974183;28;20681;-72
2022/12/28 03:56:45;;;;;;;4.60;2.70;;;;;;;;;;4977703;28;20549;-73
2022/12/28 03:59:35;;;;;;;3.70;2.97;;;;;;;;;;4979121;28;21219;-72
2022/12/28 04:02:24;;;;;;;8.13;3.47;;;;;;;;;;4978074;28;20568;-73
2022/12/28 04:05:14;;;;;;;5.63;2.53;;;;;;;;;;4974587;28;20982;-72
2022/12/28 04:08:03;;;;;;;4.23;2.60;;;;;;;;;;4972018;28;20489;-73
2022/12/28 04:10:55;;;;;;;5.50;3.60;;;;;;;;;;4972809;28;20479;-72
2022/12/28 04:13:48;;;;;;;4.20;2.57;;;;;;;;;;4979152;28;20530;-72
2022/12/28 04:16:36;;;;;;;3.77;2.57;;;;;;;;;;4973948;28;20445;-73
2022/12/28 04:19:25;;;;;;;3.20;2.67;;;;;;;;;;4973740;28;20491;-73
2022/12/28 04:22:16;;;;;;;3.63;3.17;;;;;;;;;;4979409;28;20463;-73
2022/12/28 04:25:09;;;;;;;6.07;3.27;;;;;;;;;;4974022;28;21027;-73
2022/12/28 04:27:59;;;;;;;2.47;2.27;;;;;;;;;;4981351;28;20852;-73
2022/12/28 04:30:47;;;;;;;3.67;2.90;;;;;;;;;;4978442;28;20464;-73
2022/12/28 04:33:36;;;;;;;2.70;2.33;;;;;;;;;;4981356;28;20457;-72
2022/12/28 04:36:28;;;;;;;3.30;2.53;;;;;;;;;;4976358;28;20478;-73
2022/12/28 04:39:20;;;;;;;4.90;2.77;;;;;;;;;;4974918;28;20494;-73
2022/12/28 04:42:12;;;;;;;5.60;2.53;;;;;;;;;;4973667;28;20500;-74
2022/12/28 04:45:03;;;;;;;2.60;2.30;;;;;;;;;;4979896;28;20498;-73
2022/12/28 04:47:56;;;;;;;5.30;2.50;;;;;;;;;;4973005;28;20866;-73
2022/12/28 04:50:47;;;;;;;4.20;2.33;;;;;;;;;;4974626;28;20464;-74
2022/12/28 04:53:39;;;;;;;3.27;2.50;;;;;;;;;;4963700;28;20465;-73
2022/12/28 04:56:33;;;;;;;4.43;2.53;;;;;;;;;;4963533;28;20447;-73
2022/12/28 04:59:28;;;;;;;3.63;2.63;;;;;;;;;;4960256;28;20486;-73
2022/12/28 05:02:18;;;;;;;2.50;2.30;;;;;;;;;;4958835;28;21197;-72
2022/12/28 05:05:08;;;;;;;2.77;2.57;;;;;;;;;;4968293;28;20537;-74
2022/12/28 05:07:57;;;;;;;3.50;2.70;;;;;;;;;;4971092;28;20490;-73
2022/12/28 05:10:47;;;;;;;3.67;2.30;;;;;;;;;;4967661;28;20476;-72
2022/12/28 05:13:36;;;;;;;5.10;2.77;;;;;;;;;;4981976;28;20465;-72
2022/12/28 05:16:26;;;;;;;3.60;2.90;;;;;;;;;;4974077;28;21007;-72
2022/12/28 05:19:21;;;;;;;4.60;2.93;;;;;;;;;;4978701;28;20580;-72
2022/12/28 05:22:20;;;;;;;7.40;3.03;;;;;;;;;;4975053;28;20493;-72
2022/12/28 05:25:13;;;;;;;4.60;2.90;;;;;;;;;;4978260;28;20492;-72
2022/12/28 05:31:06;;;;;;;3.53;3.20;;;;;;;;;;4894157;29;20470;-75
2022/12/28 05:33:57;;;;;;;3.57;3.23;;;;;;;;;;4894119;29;20466;-75
2022/12/28 05:36:52;;;;;;;3.97;2.90;;;;;;;;;;4893875;29;20464;-75
2022/12/28 05:39:47;;;;;;;3.50;2.93;;;;;;;;;;4902097;29;20496;-74
2022/12/28 05:42:37;;;;;;;5.73;3.30;;;;;;;;;;4909315;29;20464;-75
2022/12/28 05:45:28;;;;;;;3.80;2.70;;;;;;;;;;4913581;29;20477;-75
2022/12/28 05:48:19;;;;;;;3.00;2.70;;;;;;;;;;4906990;29;20473;-74
2022/12/28 05:51:12;;;;;;;3.40;3.10;;;;;;;;;;4906228;29;20836;-75
2022/12/28 05:54:03;;;;;;;4.37;3.00;;;;;;;;;;4897235;29;20873;-75
2022/12/28 05:57:03;;;;;;;4.23;3.83;;;;;;;;;;4901269;29;20535;-75
2022/12/28 05:59:51;;;;;;;2.90;2.70;;;;;;;;;;4910691;29;20484;-75
2022/12/28 06:02:43;;;;;;;3.50;3.20;;;;;;;;;;4908778;29;20461;-75
2022/12/28 06:05:38;;;;;;;3.53;3.13;;;;;;;;;;4909609;29;21036;-76
2022/12/28 06:08:29;;;;;;;2.70;2.50;;;;;;;;;;4901474;29;20493;-75
2022/12/28 06:11:20;;;;;;;4.37;2.93;;;;;;;;;;4906332;29;20472;-75
2022/12/28 06:14:10;;;;;;;3.30;2.97;;;;;;;;;;4905760;29;20449;-75
2022/12/28 06:17:04;;;;;;;4.00;3.60;;;;;;;;;;4910407;29;20949;-75
2022/12/28 06:19:55;;;;;;;2.67;2.37;;;;;;;;;;4903448;29;20512;-75
2022/12/28 06:22:47;;;;;;;2.67;2.47;;;;;;;;;;4900963;29;20466;-75
2022/12/28 06:25:40;;;;;;;3.23;2.93;;;;;;;;;;4905606;29;20484;-75
2022/12/28 06:28:36;;;;;;;3.03;2.73;;;;;;;;;;4901522;29;21078;-75
2022/12/28 06:31:26;;;;;;;2.90;2.70;;;;;;;;;;4900428;29;20976;-76
2022/12/28 06:34:17;;;;;;;2.70;2.10;;;;;;;;;;4903337;29;20983;-75
2022/12/28 06:37:08;;;;;;;3.87;2.80;;;;;;;;;;4898616;29;20464;-75
2022/12/28 06:40:05;;;;;;;2.60;2.40;;;;;;;;;;4904491;29;20905;-76
2022/12/28 06:42:57;;;;;;;2.50;2.30;;;;;;;;;;4899049;29;20463;-75
2022/12/28 06:45:56;;;;;;;2.60;2.40;;;;;;;;;;4896904;29;22005;-76
2022/12/28 06:48:55;;;;;;;2.60;2.40;;;;;;;;;;4899903;29;20485;-74
2022/12/28 06:51:49;;;;;;;2.60;2.27;;;;;;;;;;4897386;29;20504;-75
2022/12/28 06:54:37;;;;;;;2.50;2.30;;;;;;;;;;4905559;29;20556;-75
2022/12/28 06:57:34;;;;;;;2.70;2.50;;;;;;;;;;4896452;29;20453;-75
2022/12/28 07:00:28;;;;;;;2.30;2.17;;;;;;;;;;4897036;29;20501;-75
2022/12/28 07:03:24;;;;;;;3.03;2.63;;;;;;;;;;4907362;29;20587;-76
2022/12/28 07:06:15;;;;;;;2.20;2.10;;;;;;;;;;4913012;29;21117;-75
2022/12/28 07:09:12;;;;;;;3.10;2.80;;;;;;;;;;4903541;28;20487;-75
2022/12/28 07:12:02;;;;;;;2.67;2.47;;;;;;;;;;4906595;29;20536;-75
2022/12/28 07:14:54;;;;;;;2.47;2.27;;;;;;;;;;4910265;29;20990;-75
2022/12/28 07:17:45;;;;;;;4.50;2.60;;;;;;;;;;4909873;29;20520;-75
2022/12/28 07:20:38;;;;;;;3.23;2.93;;;;;;;;;;4894927;29;20833;-75
2022/12/28 07:23:30;;;;;;;3.80;2.00;;;;;;;;;;4902552;29;20461;-76
2022/12/28 07:26:27;;;;;;;2.30;2.20;;;;;;;;;;4907120;29;21036;-75
2022/12/28 07:29:16;;;;;;;3.00;2.40;;;;;;;;;;4907009;29;20593;-75
2022/12/28 07:32:04;;;;;;;2.70;2.50;;;;;;;;;;4908131;29;20560;-75
2022/12/28 07:34:54;;;;;;;3.00;2.80;;;;;;;;;;4900105;29;20474;-75
2022/12/28 07:37:46;;;;;;;3.63;2.90;;;;;;;;;;4903288;29;20456;-75
2022/12/28 07:40:36;;;;;;;3.57;3.00;;;;;;;;;;4904139;29;20468;-75
2022/12/28 07:43:31;;;;;;;2.83;2.60;;;;;;;;;;4909958;29;20461;-75
2022/12/28 07:46:21;;;;;;;2.50;2.30;;;;;;;;;;4912419;29;20477;-74
2022/12/28 07:49:10;;;;;;;2.90;2.70;;;;;;;;;;4900935;29;20841;-75
2022/12/28 07:52:03;;;;;;;6.90;3.50;;;;;;;;;;4907569;29;20462;-75
2022/12/28 07:54:53;;;;;;;3.20;2.93;;;;;;;;;;4902840;29;20465;-75
2022/12/28 07:57:45;;;;;;;3.10;2.57;;;;;;;;;;4901970;29;20985;-75
2022/12/28 08:00:37;;;;;;;4.20;3.57;;;;;;;;;;4900847;29;20959;-74
2022/12/28 08:03:28;;;;;;;3.10;2.83;;;;;;;;;;4908957;29;20462;-75
2022/12/28 08:06:21;;;;;;;3.37;3.07;;;;;;;;;;4894944;29;20513;-75
2022/12/28 08:09:14;;;;;;;3.87;3.57;;;;;;;;;;4900835;29;20604;-75
2022/12/28 08:12:04;;;;;;;4.90;3.10;;;;;;;;;;4900075;29;20469;-75
2022/12/28 08:14:56;;;;;;;3.00;2.80;;;;;;;;;;4902842;29;20461;-75
2022/12/28 08:17:46;;;;;;;3.40;3.07;;;;;;;;;;4904514;29;20460;-75
2022/12/28 08:20:38;;;;;;;3.37;3.13;;;;;;;;;;4894741;29;20477;-75
2022/12/28 08:23:27;;;;;;;3.90;3.60;;;;;;;;;;4904603;29;20465;-75
2022/12/28 08:26:23;;;;;;;3.20;3.00;;;;;;;;;;4900698;29;20496;-75
2022/12/28 08:29:16;;;;;;;3.60;3.30;;;;;;;;;;4907836;29;20478;-75
2022/12/28 08:32:08;;;;;;;3.33;3.13;;;;;;;;;;4892117;29;21215;-74
2022/12/28 08:35:03;;;;;;;3.43;3.13;;;;;;;;;;4909850;29;20452;-75
2022/12/28 08:37:57;;;;;;;3.90;3.60;;;;;;;;;;4891422;29;20471;-75
2022/12/28 08:40:54;;;;;;;3.60;3.30;;;;;;;;;;4905557;29;20457;-75
2022/12/28 08:43:53;;;;;;;3.90;3.60;;;;;;;;;;4907566;29;20464;-74
2022/12/28 08:46:45;;;;;;;3.80;3.50;;;;;;;;;;4904621;29;20489;-75
2022/12/28 08:49:37;;;;;;;3.93;3.63;;;;;;;;;;4893965;29;20572;-74
2022/12/28 08:52:30;;;;;;;3.83;3.40;;;;;;;;;;4905469;29;20473;-75
2022/12/28 08:55:20;;;;;;;4.20;3.90;;;;;;;;;;4896404;29;20536;-74
2022/12/28 08:58:09;;;;;;;4.23;3.83;;;;;;;;;;4889119;29;20477;-74
2022/12/28 09:00:58;;;;;;;4.03;3.67;;;;;;;;;;4894524;29;21156;-74
2022/12/28 09:03:54;;;;;;;4.33;3.93;;;;;;;;;;4896335;29;20477;-74
2022/12/28 09:06:43;;;;;;;5.00;4.50;;;;;;;;;;4902425;29;20489;-74
2022/12/28 09:09:33;;;;;;;5.13;4.30;;;;;;;;;;4907681;29;20485;-74
2022/12/28 09:12:24;;;;;;;6.07;4.90;;;;;;;;;;4897160;29;20469;-74
2022/12/28 09:15:16;;;;;;;5.37;4.50;;;;;;;;;;4895812;29;20463;-74
2022/12/28 09:18:04;;;;;;;6.13;5.33;;;;;;;;;;4897406;29;20564;-74
2022/12/28 09:20:54;;;;;;;6.00;5.40;;;;;;;;;;4879987;29;20985;-75
2022/12/28 09:23:43;;;;;;;6.23;5.63;;;;;;;;;;4900453;29;20523;-75
2022/12/28 09:26:34;;;;;;;5.87;5.27;;;;;;;;;;4884699;29;20863;-75
2022/12/28 09:29:23;;;;;;;7.13;6.33;;;;;;;;;;4900958;29;20481;-74
2022/12/28 09:32:12;;;;;;;6.70;6.10;;;;;;;;;;4895351;29;20556;-76
2022/12/28 09:35:00;;;;;;;7.83;6.30;;;;;;;;;;4884314;29;20521;-74
2022/12/28 09:37:50;;;;;;;7.47;6.50;;;;;;;;;;4898767;29;20445;-74
2022/12/28 09:40:39;;;;;;;6.60;6.00;;;;;;;;;;4900253;29;20612;-76
2022/12/28 09:43:28;;;;;;;6.60;5.90;;;;;;;;;;4893723;29;20883;-75
2022/12/28 09:46:19;;;;;;;7.53;6.83;;;;;;;;;;4896641;29;20484;-74
2022/12/28 09:49:10;;;;;;;6.80;6.10;;;;;;;;;;4890191;29;20546;-74
2022/12/28 09:52:06;;;;;;;7.50;6.80;;;;;;;;;;4895298;29;20476;-74
2022/12/28 09:54:57;;;;;;;7.80;7.00;;;;;;;;;;4903529;29;20557;-74
2022/12/28 09:57:48;;;;;;;8.00;7.00;;;;;;;;;;4897923;29;20462;-75
2022/12/28 10:00:39;;;;;;;7.40;6.70;;;;;;;;;;4888719;29;20915;-74
2022/12/28 10:03:28;;;;;;;7.83;7.03;;;;;;;;;;4886878;29;20595;-75
2022/12/28 10:06:18;;;;;;;7.03;6.33;;;;;;;;;;4892491;29;20597;-74
2022/12/28 10:09:12;;;;;;;7.77;7.07;;;;;;;;;;4892255;29;20568;-74
2022/12/28 10:12:12;;;;;;;6.70;6.10;;;;;;;;;;4896614;29;20834;-74
2022/12/28 10:15:00;;;;;;;6.73;5.90;;;;;;;;;;4900043;29;20461;-74
2022/12/28 10:17:49;;;;;;;7.40;5.70;;;;;;;;;;4897846;29;20453;-74
2022/12/28 10:20:37;;;;;;;7.20;6.23;;;;;;;;;;4891713;29;20466;-75
2022/12/28 10:23:28;;;;;;;6.60;5.77;;;;;;;;;;4905632;29;20552;-74
2022/12/28 10:26:18;;;;;;;6.47;5.87;;;;;;;;;;4906894;29;20504;-74
2022/12/28 10:29:14;;;;;;;6.37;5.77;;;;;;;;;;4897753;29;20875;-74
2022/12/28 10:32:03;;;;;;;7.23;6.53;;;;;;;;;;4887655;29;20483;-75
2022/12/28 10:34:55;;;;;;;6.27;5.70;;;;;;;;;;4878731;29;20893;-75
2022/12/28 10:37:44;;;;;;;6.53;5.93;;;;;;;;;;4891576;29;20454;-74
2022/12/28 10:40:34;;;;;;;6.20;5.60;;;;;;;;;;4886416;29;20576;-74
2022/12/28 10:43:23;;;;;;;6.73;6.07;;;;;;;;;;4884770;29;20473;-74
2022/12/28 10:46:16;;;;;;;6.30;5.70;;;;;;;;;;4889306;29;20544;-74
2022/12/28 10:49:14;;;;;;;6.23;5.63;;;;;;;;;;4875573;29;20863;-74
2022/12/28 10:52:06;;;;;;;6.80;6.10;;;;;;;;;;4891776;29;20466;-74
2022/12/28 10:54:55;;;;;;;6.83;6.23;;;;;;;;;;4889544;29;20465;-74
2022/12/28 10:57:56;;;;;;;6.20;5.70;;;;;;;;;;4891921;29;20457;-76
2022/12/28 11:01:07;;;;;;;6.30;5.70;;;;;;;;;;4893689;29;20449;-74
2022/12/28 11:04:02;;;;;;;6.93;6.20;;;;;;;;;;4901871;29;20457;-75
2022/12/28 11:06:55;;;;;;;6.27;5.70;;;;;;;;;;4892963;29;20529;-74
2022/12/28 11:09:43;;;;;;;6.60;6.00;;;;;;;;;;4886343;29;20494;-77
2022/12/28 11:12:35;;;;;;;7.03;6.33;;;;;;;;;;4889437;29;20457;-75
2022/12/28 11:15:25;;;;;;;5.73;5.23;;;;;;;;;;4895119;29;20464;-74
2022/12/28 11:18:15;;;;;;;6.77;6.07;;;;;;;;;;4892038;29;20494;-75
2022/12/28 11:21:06;;;;;;;6.23;5.63;;;;;;;;;;4900841;29;20465;-76
2022/12/28 11:23:54;;;;;;;6.43;5.83;;;;;;;;;;4895451;29;20461;-75
2022/12/28 11:26:44;;;;;;;6.43;5.50;;;;;;;;;;4896696;29;20489;-76
2022/12/28 11:29:32;;;;;;;5.70;5.13;;;;;;;;;;4899857;29;20544;-74
2022/12/28 11:32:23;;;;;;;6.07;5.47;;;;;;;;;;4910862;29;20458;-75
2022/12/28 11:35:16;;;;;;;6.07;5.57;;;;;;;;;;4899867;29;21040;-73
2022/12/28 11:38:07;;;;;;;5.90;5.30;;;;;;;;;;4909966;29;20985;-76
2022/12/28 11:40:56;;;;;;;6.20;5.70;;;;;;;;;;4891109;29;20841;-74
2022/12/28 11:43:51;;;;;;;5.30;4.80;;;;;;;;;;4887216;29;20459;-73
2022/12/28 11:46:41;;;;;;;5.27;4.83;;;;;;;;;;4884979;29;20622;-74
2022/12/28 11:49:31;;;;;;;4.60;4.20;;;;;;;;;;4891641;29;20579;-74
2022/12/28 11:52:43;;;;;;;4.70;4.30;;;;;;;;;;4891890;29;20540;-74
2022/12/28 11:55:43;;;;;;;4.60;4.20;;;;;;;;;;4907102;28;20536;-75
2022/12/28 11:58:53;;;;;;;5.20;4.40;;;;;;;;;;4903918;29;20477;-74
2022/12/28 12:01:43;;;;;;;4.33;3.93;;;;;;;;;;4900515;29;20461;-76
2022/12/28 12:04:34;;;;;;;4.40;4.00;;;;;;;;;;4910039;29;20590;-76
2022/12/28 12:07:27;;;;;;;4.13;3.73;;;;;;;;;;4920458;29;20496;-75
2022/12/28 12:10:30;;;;;;;4.37;3.97;;;;;;;;;;4907783;29;20629;-78
2022/12/28 12:13:41;;;;;;;3.80;3.50;;;;;;;;;;4918627;29;20457;-76
2022/12/28 12:16:34;;;;;;;4.43;3.50;;;;;;;;;;4927891;28;20464;-75
2022/12/28 12:19:24;;;;;;;3.87;3.57;;;;;;;;;;4924009;29;20505;-78
2022/12/28 12:22:15;;;;;;;3.43;3.20;;;;;;;;;;4943038;29;20553;-77
2022/12/28 12:25:05;;;;;;;3.00;2.80;;;;;;;;;;4931662;29;20469;-77
2022/12/28 12:27:55;;;;;;;4.00;3.70;;;;;;;;;;4931984;29;20489;-77
2022/12/28 12:30:46;;;;;;;3.80;3.50;;;;;;;;;;4934972;29;20485;-75
2022/12/28 12:33:36;;;;;;;4.47;3.30;;;;;;;;;;4925361;29;20969;-75
2022/12/28 12:36:33;;;;;;;3.57;3.27;;;;;;;;;;4907613;29;20450;-77
2022/12/28 12:39:32;;;;;;;3.73;3.40;;;;;;;;;;4902014;29;20492;-78
2022/12/28 12:42:25;;;;;;;3.73;3.30;;;;;;;;;;4905237;29;20458;-75
2022/12/28 12:45:18;;;;;;;4.63;4.13;;;;;;;;;;4900239;29;20493;-74
2022/12/28 12:48:21;;;;;;;3.43;3.13;;;;;;;;;;4900945;29;20489;-74
2022/12/28 12:51:15;;;;;;;3.90;3.60;;;;;;;;;;4907570;28;20445;-74
2022/12/28 12:54:14;;;;;;;3.90;3.60;;;;;;;;;;4903085;29;20453;-75
2022/12/28 12:57:05;;;;;;;3.80;3.37;;;;;;;;;;4913395;29;20456;-74
2022/12/28 13:00:01;;;;;;;4.20;3.80;;;;;;;;;;4908016;29;20489;-74
2022/12/28 13:03:01;;;;;;;4.03;3.60;;;;;;;;;;4909376;29;20988;-74
2022/12/28 13:05:52;;;;;;;4.40;4.00;;;;;;;;;;4904529;29;20461;-74
2022/12/28 13:08:43;;;;;;;4.20;3.80;;;;;;;;;;4908968;29;20493;-74
2022/12/28 13:11:31;;;;;;;3.97;3.57;;;;;;;;;;4902699;29;20449;-75
2022/12/28 13:14:21;;;;;;;5.07;3.47;;;;;;;;;;4906160;29;20484;-73
2022/12/28 13:17:14;;;;;;;3.63;3.30;;;;;;;;;;4900277;29;20454;-73
2022/12/28 13:20:09;;;;;;;3.53;3.23;;;;;;;;;;4902849;29;20488;-76
2022/12/28 13:22:59;;;;;;;4.43;4.03;;;;;;;;;;4890397;29;22739;-76
2022/12/28 13:25:52;;;;;;;4.50;4.10;;;;;;;;;;4894391;29;20475;-75
2022/12/28 13:28:46;;;;;;;4.87;4.37;;;;;;;;;;4891725;29;20588;-73
2022/12/28 13:31:35;;;;;;;4.80;4.40;;;;;;;;;;4900341;29;20449;-73
2022/12/28 13:34:25;;;;;;;4.30;3.90;;;;;;;;;;4901893;29;20473;-73
2022/12/28 13:37:16;;;;;;;4.93;4.53;;;;;;;;;;4895348;29;20473;-73
2022/12/28 13:40:16;;;;;;;4.53;4.13;;;;;;;;;;4904085;29;20500;-74
2022/12/28 13:43:25;;;;;;;10.53;5.00;;;;;;;;;;4908403;29;20464;-74
2022/12/28 13:46:15;;;;;;;5.73;4.50;;;;;;;;;;4902125;29;20573;-74
2022/12/28 13:49:05;;;;;;;5.00;4.50;;;;;;;;;;4903117;29;20489;-74
2022/12/28 13:51:55;;;;;;;5.43;4.93;;;;;;;;;;4907744;29;20549;-75
2022/12/28 13:54:45;;;;;;;4.73;4.33;;;;;;;;;;4907741;29;20465;-75
2022/12/28 13:57:36;;;;;;;5.40;4.90;;;;;;;;;;4912917;29;20474;-75
2022/12/28 14:00:37;;;;;;;4.63;4.20;;;;;;;;;;4897172;29;20477;-74
2022/12/28 14:03:26;;;;;;;4.40;4.00;;;;;;;;;;4897403;29;20497;-74
2022/12/28 14:06:15;;;;;;;4.43;4.03;;;;;;;;;;4897662;29;20528;-75
2022/12/28 14:09:04;;;;;;;4.50;4.10;;;;;;;;;;4903243;29;20500;-75
2022/12/28 14:11:53;;;;;;;4.40;4.00;;;;;;;;;;4905222;29;20460;-75
2022/12/28 14:14:44;;;;;;;4.77;4.33;;;;;;;;;;4902565;29;20459;-74
2022/12/28 14:17:33;;;;;;;4.47;4.07;;;;;;;;;;4904285;29;20613;-74
2022/12/28 14:20:21;;;;;;;5.17;4.67;;;;;;;;;;4900191;29;20843;-74
2022/12/28 14:23:20;;;;;;;4.40;4.00;;;;;;;;;;4907635;29;20548;-74
2022/12/28 14:26:10;;;;;;;4.70;4.30;;;;;;;;;;4892298;29;20992;-75
2022/12/28 14:28:58;;;;;;;5.03;4.63;;;;;;;;;;4892430;29;20497;-73
2022/12/28 14:31:48;;;;;;;4.80;4.30;;;;;;;;;;4887707;29;20885;-74
2022/12/28 14:34:37;;;;;;;5.00;4.60;;;;;;;;;;4895785;29;20919;-74
2022/12/28 14:37:27;;;;;;;5.40;4.90;;;;;;;;;;4899959;29;20474;-74
2022/12/28 14:40:21;;;;;;;5.00;4.60;;;;;;;;;;4898407;29;20524;-74
2022/12/28 14:43:11;;;;;;;5.40;4.87;;;;;;;;;;4891028;29;20536;-74
2022/12/28 14:46:15;;;;;;;6.03;5.43;;;;;;;;;;4896048;29;21246;-74
2022/12/28 14:49:19;;;;;;;5.80;5.30;;;;;;;;;;4890532;29;20594;-75
2022/12/28 14:52:34;;;;;;;5.17;4.67;;;;;;;;;;4890496;29;20469;-75
2022/12/28 14:55:31;;;;;;;5.00;4.60;;;;;;;;;;4910905;29;20568;-74
2022/12/28 14:58:22;;;;;;;5.37;4.90;;;;;;;;;;4894535;29;20484;-74
2022/12/28 15:01:11;;;;;;;4.83;4.43;;;;;;;;;;4890862;29;20458;-73
2022/12/28 15:04:03;;;;;;;4.40;4.00;;;;;;;;;;4898490;29;20473;-74
2022/12/28 15:06:51;;;;;;;5.63;3.90;;;;;;;;;;4897361;29;20497;-74
2022/12/28 15:09:41;;;;;;;4.23;3.93;;;;;;;;;;4892062;29;20481;-74
2022/12/28 15:12:30;;;;;;;4.10;3.70;;;;;;;;;;4890690;29;20848;-74
2022/12/28 15:15:19;;;;;;;3.87;3.57;;;;;;;;;;4911433;29;20820;-73
2022/12/28 15:18:07;;;;;;;3.70;3.40;;;;;;;;;;4902813;29;20473;-74
2022/12/28 15:20:56;;;;;;;4.03;3.60;;;;;;;;;;4908165;29;20458;-74
2022/12/28 15:23:44;;;;;;;4.33;4.00;;;;;;;;;;4902524;29;20588;-74
2022/12/28 15:26:34;;;;;;;4.13;3.73;;;;;;;;;;4911381;29;20464;-74
2022/12/28 15:29:23;;;;;;;5.63;3.63;;;;;;;;;;4907861;29;20850;-73
2022/12/28 15:32:32;;;;;;;3.73;3.43;;;;;;;;;;4901306;29;20475;-74
2022/12/28 15:35:20;;;;;;;3.87;3.50;;;;;;;;;;4912710;29;20953;-73
2022/12/28 15:38:09;;;;;;;3.53;3.23;;;;;;;;;;4896612;29;20481;-74
2022/12/28 15:40:58;;;;;;;3.10;2.90;;;;;;;;;;4914747;29;20488;-74
2022/12/28 15:43:50;;;;;;;3.30;3.00;;;;;;;;;;4903010;29;20469;-74
2022/12/28 15:46:39;;;;;;;3.80;3.40;;;;;;;;;;4897814;29;20461;-74
2022/12/28 15:49:27;;;;;;;3.03;2.80;;;;;;;;;;4905055;29;20488;-74
2022/12/28 15:52:16;;;;;;;3.17;2.87;;;;;;;;;;4908130;29;20605;-73
2022/12/28 15:55:05;;;;;;;3.40;3.10;;;;;;;;;;4898144;29;20457;-73
2022/12/28 15:57:53;;;;;;;3.70;3.17;;;;;;;;;;4916303;29;20801;-74
2022/12/28 16:00:43;;;;;;;3.37;2.70;;;;;;;;;;4908242;29;21561;-74
2022/12/28 16:03:35;;;;;;;3.23;2.93;;;;;;;;;;4895071;29;20476;-74
2022/12/28 16:06:27;;;;;;;3.10;2.80;;;;;;;;;;4906601;29;20453;-75
2022/12/28 16:09:22;;;;;;;3.90;3.20;;;;;;;;;;4910033;29;20497;-74
2022/12/28 16:12:15;;;;;;;3.33;3.10;;;;;;;;;;4912411;29;20892;-75
2022/12/28 16:15:12;;;;;;;3.13;2.83;;;;;;;;;;4908883;29;21007;-75
2022/12/28 16:18:03;;;;;;;3.40;3.10;;;;;;;;;;4902217;29;20471;-75
2022/12/28 16:20:59;;;;;;;3.60;3.30;;;;;;;;;;4890400;29;20570;-74
2022/12/28 16:24:01;;;;;;;4.57;3.90;;;;;;;;;;4899062;29;21009;-74
2022/12/28 16:26:54;;;;;;;5.10;4.20;;;;;;;;;;4899672;29;20448;-74
2022/12/28 16:29:45;;;;;;;4.20;3.80;;;;;;;;;;4894058;29;21092;-74
2022/12/28 16:32:37;;;;;;;4.17;3.67;;;;;;;;;;4898949;29;20461;-75
2022/12/28 16:35:31;;;;;;;4.53;4.10;;;;;;;;;;4890332;29;21048;-75
2022/12/28 16:38:21;;;;;;;4.10;3.50;;;;;;;;;;4889960;29;20477;-75
2022/12/28 16:41:12;;;;;;;4.47;4.00;;;;;;;;;;4891819;29;20466;-75
2022/12/28 16:44:07;;;;;;;4.33;3.93;;;;;;;;;;4895696;29;20469;-75
2022/12/28 16:46:58;;;;;;;3.87;3.50;;;;;;;;;;4893206;29;20989;-73
2022/12/28 16:49:52;;;;;;;4.23;3.83;;;;;;;;;;4898211;29;21174;-73
2022/12/28 16:52:43;;;;;;;5.63;3.97;;;;;;;;;;4897219;29;20556;-75
2022/12/28 16:55:35;;;;;;;4.27;3.87;;;;;;;;;;4902034;29;21270;-74
2022/12/28 16:58:26;;;;;;;4.50;4.10;;;;;;;;;;4902130;29;20982;-73
2022/12/28 17:01:17;;;;;;;4.10;3.50;;;;;;;;;;4900946;29;21876;-74
2022/12/28 17:04:11;;;;;;;5.00;4.47;;;;;;;;;;4902134;29;20480;-73
2022/12/28 17:07:07;;;;;;;4.50;3.93;;;;;;;;;;4902171;29;20620;-74
2022/12/28 17:09:59;;;;;;;5.13;4.70;;;;;;;;;;4899991;29;20530;-76
2022/12/28 17:12:48;;;;;;;4.00;3.70;;;;;;;;;;4897383;29;20457;-74
2022/12/28 17:15:39;;;;;;;5.33;4.83;;;;;;;;;;4903212;29;20488;-74
2022/12/28 17:18:29;;;;;;;4.90;4.40;;;;;;;;;;4917169;29;20529;-73
2022/12/28 17:21:19;;;;;;;4.90;4.50;;;;;;;;;;4891344;29;21374;-75
2022/12/28 17:24:14;;;;;;;8.60;6.57;;;;;;;;;;4902136;29;21029;-74
2022/12/28 17:27:06;;;;;;;5.07;4.50;;;;;;;;;;4903342;29;20463;-74
2022/12/28 17:30:09;;;;;;;5.70;5.20;;;;;;;;;;4895471;29;21009;-73
2022/12/28 17:32:58;;;;;;;4.70;4.20;;;;;;;;;;4943097;23;21523;-73
2022/12/28 17:35:51;;;;;;;5.30;4.80;;;;;;;;;;4941382;28;20458;-72
2022/12/28 17:38:40;;;;;;;5.93;5.43;;;;;;;;;;4950441;28;20499;-80
2022/12/28 17:41:32;;;;;;;5.43;4.93;;;;;;;;;;4963235;28;20451;-76